Time;durP1;ratioP1;P1;durP2;ratioP2;P2;SDS_P1;SDS_P2;PMS_P1;PMS_P2;Temp;Humidity;BMP_temperature;BMP_pressure;BME280_temperature;BME280_humidity;BME280_pressure;Samples;Min_cycle;Max_cycle;Signal;HPM_P1;HPM_P2
2022/05/27 00:00:44;;;;;;;4.10;2.00;;;18.30;80.20;;;;;;2079251;28;20026;-71
2022/05/27 00:01:45;;;;;;;5.15;1.70;;;18.30;80.10;;;;;;2079411;28;20399;-71
2022/05/27 00:02:50;;;;;;;5.45;1.70;;;18.30;80.00;;;;;;2088278;28;20090;-71
2022/05/27 00:03:51;;;;;;;3.85;1.60;;;18.30;80.00;;;;;;2088029;28;20025;-71
2022/05/27 00:04:51;;;;;;;3.58;1.80;;;18.30;80.40;;;;;;2079264;28;20116;-72
2022/05/27 00:05:52;;;;;;;3.63;1.90;;;18.30;80.60;;;;;;2079418;28;20036;-71
2022/05/27 00:06:52;;;;;;;3.15;1.77;;;18.30;80.10;;;;;;2088238;28;20345;-71
2022/05/27 00:07:53;;;;;;;3.55;1.77;;;18.30;80.00;;;;;;2087359;28;20118;-71
2022/05/27 00:08:55;;;;;;;3.25;1.90;;;18.30;80.30;;;;;;2087602;28;20041;-72
2022/05/27 00:09:55;;;;;;;4.68;2.28;;;18.30;80.20;;;;;;2088177;28;20495;-72
2022/05/27 00:10:57;;;;;;;3.75;2.10;;;18.30;80.20;;;;;;2088099;28;20029;-72
2022/05/27 00:11:57;;;;;;;3.42;1.75;;;18.30;80.10;;;;;;2088341;28;20406;-72
2022/05/27 00:12:58;;;;;;;3.13;1.65;;;18.30;79.80;;;;;;2088274;28;20028;-72
2022/05/27 00:13:59;;;;;;;3.08;1.70;;;18.30;80.10;;;;;;2088033;28;20025;-71
2022/05/27 00:15:00;;;;;;;2.83;1.70;;;18.30;80.20;;;;;;2087454;28;20284;-72
2022/05/27 00:16:01;;;;;;;3.83;1.73;;;18.30;80.40;;;;;;2087488;28;20025;-71
2022/05/27 00:17:02;;;;;;;5.43;1.73;;;18.30;80.00;;;;;;2088113;28;20447;-71
2022/05/27 00:18:02;;;;;;;7.32;1.88;;;18.30;80.10;;;;;;2088227;28;20036;-71
2022/05/27 00:19:03;;;;;;;2.90;1.80;;;18.30;80.40;;;;;;2088166;28;20036;-71
2022/05/27 00:20:04;;;;;;;4.38;1.80;;;18.30;79.90;;;;;;2087795;28;20090;-71
2022/05/27 00:21:05;;;;;;;2.88;1.83;;;18.30;80.00;;;;;;2088101;28;20192;-71
2022/05/27 00:22:06;;;;;;;4.40;1.70;;;18.30;80.00;;;;;;2087971;28;20057;-72
2022/05/27 00:23:06;;;;;;;2.83;1.60;;;18.30;80.10;;;;;;2088149;28;20040;-71
2022/05/27 00:24:07;;;;;;;3.13;1.60;;;18.30;80.40;;;;;;2087035;28;20025;-71
2022/05/27 00:25:08;;;;;;;5.05;1.83;;;18.30;80.40;;;;;;2087293;28;20031;-71
2022/05/27 00:26:10;;;;;;;2.65;1.90;;;18.30;80.10;;;;;;2088045;28;20574;-72
2022/05/27 00:27:10;;;;;;;3.13;1.80;;;18.30;79.90;;;;;;2087929;28;20040;-71
2022/05/27 00:28:11;;;;;;;2.22;1.55;;;18.30;80.20;;;;;;2088206;28;20060;-71
2022/05/27 00:29:12;;;;;;;5.00;1.60;;;18.30;80.60;;;;;;2087817;28;20044;-71
2022/05/27 00:30:13;;;;;;;4.30;1.83;;;18.30;80.20;;;;;;2087921;28;20017;-71
2022/05/27 00:31:18;;;;;;;3.53;2.08;;;18.30;80.00;;;;;;2088099;28;20108;-72
2022/05/27 00:32:18;;;;;;;3.25;1.55;;;18.30;80.20;;;;;;2088032;28;20013;-71
2022/05/27 00:33:19;;;;;;;5.97;2.00;;;18.30;80.20;;;;;;2088032;28;20029;-71
2022/05/27 00:34:20;;;;;;;4.43;1.85;;;18.30;80.40;;;;;;2087781;28;20035;-71
2022/05/27 00:35:21;;;;;;;3.00;1.60;;;18.30;80.30;;;;;;2088053;28;20028;-71
2022/05/27 00:36:21;;;;;;;4.43;1.95;;;18.30;80.30;;;;;;2088214;28;20454;-71
2022/05/27 00:37:22;;;;;;;2.42;1.70;;;18.30;80.00;;;;;;2088378;28;20029;-71
2022/05/27 00:38:22;;;;;;;2.75;1.65;;;18.30;80.40;;;;;;2088159;28;20033;-71
2022/05/27 00:39:24;;;;;;;3.60;1.80;;;18.30;80.10;;;;;;2088116;28;20047;-71
2022/05/27 00:40:26;;;;;;;3.58;1.98;;;18.30;80.30;;;;;;2087139;28;20037;-71
2022/05/27 00:41:27;;;;;;;3.85;1.83;;;18.30;80.00;;;;;;2087424;28;20029;-71
2022/05/27 00:42:28;;;;;;;2.45;1.77;;;18.30;80.20;;;;;;2087556;28;20099;-72
2022/05/27 00:43:28;;;;;;;2.30;1.80;;;18.30;80.30;;;;;;2088058;28;20361;-72
2022/05/27 00:44:29;;;;;;;3.63;1.80;;;18.30;80.50;;;;;;2087665;28;20376;-72
2022/05/27 00:45:32;;;;;;;3.10;1.73;;;18.30;80.00;;;;;;2087872;28;20561;-71
2022/05/27 00:46:34;;;;;;;2.75;1.73;;;18.30;80.10;;;;;;2087935;28;20025;-71
2022/05/27 00:47:38;;;;;;;2.75;1.77;;;18.30;80.30;;;;;;2087970;28;20028;-72
2022/05/27 00:48:39;;;;;;;3.25;2.00;;;18.30;81.20;;;;;;2087942;28;20032;-72
2022/05/27 00:49:48;;;;;;;2.42;1.77;;;18.30;80.40;;;;;;2088005;28;20377;-72
2022/05/27 00:50:49;;;;;;;3.17;1.70;;;18.30;80.40;;;;;;2087792;28;20550;-72
2022/05/27 00:51:57;;;;;;;3.17;1.90;;;18.30;80.60;;;;;;2087877;28;20595;-72
2022/05/27 00:53:02;;;;;;;3.85;2.00;;;18.30;80.80;;;;;;2087367;28;20027;-72
2022/05/27 00:54:24;;;;;;;2.75;1.70;;;18.30;80.50;;;;;;2087196;28;20064;-72
2022/05/27 00:55:33;;;;;;;2.70;1.88;;;18.30;80.50;;;;;;2087983;28;20487;-72
2022/05/27 00:56:36;;;;;;;3.45;1.90;;;18.30;80.70;;;;;;2087326;28;20044;-72
2022/05/27 00:57:50;;;;;;;4.53;2.00;;;18.30;80.60;;;;;;2087383;28;20078;-71
2022/05/27 00:59:00;;;;;;;3.67;1.90;;;18.30;80.30;;;;;;2087812;28;20094;-71
2022/05/27 01:00:12;;;;;;;3.83;1.80;;;18.30;80.50;;;;;;2087944;28;20385;-71
2022/05/27 01:01:14;;;;;;;3.90;1.70;;;18.30;80.40;;;;;;2086946;28;20028;-72
2022/05/27 01:02:15;;;;;;;3.78;1.95;;;18.30;80.40;;;;;;2087158;28;20075;-71
2022/05/27 01:03:18;;;;;;;5.10;2.00;;;18.30;80.20;;;;;;2087239;28;20037;-71
2022/05/27 01:04:19;;;;;;;2.75;1.88;;;18.30;80.00;;;;;;2087318;28;20527;-72
2022/05/27 01:05:22;;;;;;;7.53;2.15;;;18.30;80.30;;;;;;2088042;28;20453;-71
2022/05/27 01:06:23;;;;;;;3.95;1.98;;;18.30;80.20;;;;;;2088082;28;20036;-71
2022/05/27 01:07:24;;;;;;;4.57;2.00;;;18.30;79.90;;;;;;2088043;28;20025;-72
2022/05/27 01:08:28;;;;;;;6.28;2.20;;;18.40;79.80;;;;;;2087869;28;20084;-71
2022/05/27 01:09:29;;;;;;;4.03;2.00;;;18.40;80.20;;;;;;2087986;28;20101;-72
2022/05/27 01:10:37;;;;;;;3.47;2.00;;;18.30;80.00;;;;;;2087855;28;20496;-72
2022/05/27 01:11:40;;;;;;;5.07;2.30;;;18.40;80.60;;;;;;2087305;28;20021;-71
2022/05/27 01:13:29;;;;;;;5.30;1.85;;;18.40;80.20;;;;;;2087275;28;20051;-71
2022/05/27 01:14:47;;;;;;;3.22;1.80;;;18.40;80.10;;;;;;2074234;28;20037;-71
2022/05/27 01:16:15;;;;;;;4.00;1.98;;;18.40;80.40;;;;;;2087885;28;20414;-71
2022/05/27 01:17:32;;;;;;;3.13;2.03;;;18.40;80.60;;;;;;2087699;28;20480;-71
2022/05/27 01:20:18;;;;;;;4.22;1.90;;;18.30;80.60;;;;;;2087341;28;20118;-72
2022/05/27 01:21:56;;;;;;;4.53;1.90;;;18.30;80.20;;;;;;2088002;28;20025;-71
2022/05/27 01:23:12;;;;;;;6.07;2.25;;;18.30;80.10;;;;;;2087902;28;20124;-72
2022/05/27 01:24:53;;;;;;;4.57;1.92;;;18.40;80.20;;;;;;2087661;28;20021;-72
2022/05/27 01:26:08;;;;;;;3.15;1.90;;;18.40;80.50;;;;;;2087918;28;20028;-71
2022/05/27 01:27:44;;;;;;;4.07;2.08;;;18.40;80.50;;;;;;2088163;28;20033;-72
2022/05/27 01:29:09;;;;;;;4.07;2.05;;;18.40;80.20;;;;;;2087744;28;20044;-71
2022/05/27 01:30:29;;;;;;;4.38;1.95;;;18.40;80.50;;;;;;2087905;28;20013;-72
2022/05/27 01:32:00;;;;;;;4.68;2.10;;;18.40;80.40;;;;;;2087558;28;20044;-72
2022/05/27 01:33:27;;;;;;;3.67;2.00;;;18.40;80.80;;;;;;2087851;28;20029;-73
2022/05/27 01:34:37;;;;;;;3.60;1.90;;;18.40;80.90;;;;;;2087468;28;20028;-73
2022/05/27 01:35:44;;;;;;;3.35;2.25;;;18.40;80.70;;;;;;2087800;28;20121;-71
2022/05/27 01:37:05;;;;;;;5.47;2.30;;;18.40;80.80;;;;;;2087632;28;20079;-71
2022/05/27 01:38:14;;;;;;;4.70;2.28;;;18.40;80.50;;;;;;2087733;28;20085;-72
2022/05/27 01:39:24;;;;;;;4.38;2.00;;;18.40;81.20;;;;;;2086943;28;20017;-72
2022/05/27 01:40:34;;;;;;;3.45;2.00;;;18.40;81.20;;;;;;2086556;28;20108;-72
2022/05/27 01:41:48;;;;;;;4.22;2.10;;;18.40;80.70;;;;;;2087294;28;20024;-73
2022/05/27 01:42:57;;;;;;;4.95;2.20;;;18.40;80.50;;;;;;2087605;28;20036;-72
2022/05/27 01:44:06;;;;;;;5.15;2.25;;;18.40;80.30;;;;;;2086704;28;20021;-72
2022/05/27 01:45:24;;;;;;;4.18;2.13;;;18.40;81.10;;;;;;2087296;28;20028;-72
2022/05/27 01:46:31;;;;;;;4.85;2.17;;;18.40;80.90;;;;;;2087744;28;20029;-72
2022/05/27 01:47:49;;;;;;;3.90;2.25;;;18.40;81.00;;;;;;2086963;28;20029;-72
2022/05/27 01:49:02;;;;;;;4.60;2.15;;;18.30;80.60;;;;;;2087120;28;20029;-72
2022/05/27 01:50:12;;;;;;;4.05;2.15;;;18.40;81.10;;;;;;2087298;28;20052;-72
2022/05/27 01:51:26;;;;;;;4.13;2.08;;;18.30;80.80;;;;;;2087421;28;20774;-72
2022/05/27 01:52:36;;;;;;;4.00;2.00;;;18.30;80.90;;;;;;2087501;28;20071;-73
2022/05/27 01:53:53;;;;;;;3.88;2.03;;;18.30;81.20;;;;;;2087591;28;20048;-73
2022/05/27 01:55:08;;;;;;;4.25;2.10;;;18.30;81.10;;;;;;2087512;28;20033;-73
2022/05/27 01:56:17;;;;;;;3.08;1.90;;;18.30;81.40;;;;;;2087693;28;20163;-72
2022/05/27 01:57:23;;;;;;;3.92;2.10;;;18.30;81.60;;;;;;2087721;28;20048;-72
2022/05/27 01:58:31;;;;;;;4.72;2.17;;;18.30;81.40;;;;;;2086902;28;20037;-72
2022/05/27 01:59:47;;;;;;;4.25;2.13;;;18.30;81.30;;;;;;2087128;28;20087;-71
2022/05/27 02:00:49;;;;;;;4.22;2.30;;;18.30;81.50;;;;;;2086741;28;20506;-72
2022/05/27 02:01:59;;;;;;;5.78;2.20;;;18.30;81.40;;;;;;2086984;28;20071;-72
2022/05/27 02:03:21;;;;;;;5.37;2.20;;;18.30;81.20;;;;;;2087727;28;20025;-72
2022/05/27 02:04:39;;;;;;;3.63;2.17;;;18.30;81.20;;;;;;2087445;28;20029;-73
2022/05/27 02:05:46;;;;;;;4.05;2.00;;;18.30;81.20;;;;;;2087531;28;20036;-72
2022/05/27 02:06:57;;;;;;;6.18;2.10;;;18.30;81.40;;;;;;2087673;28;20079;-72
2022/05/27 02:08:03;;;;;;;5.32;2.22;;;18.30;81.50;;;;;;2086992;28;20029;-72
2022/05/27 02:09:14;;;;;;;5.25;2.22;;;18.30;81.80;;;;;;2086783;28;20115;-72
2022/05/27 02:10:22;;;;;;;;;;;18.30;81.40;;;;;;2088079;28;20025;-71
2022/05/27 02:11:24;;;;;;;5.47;2.35;;;18.30;82.20;;;;;;2087478;28;20374;-73
2022/05/27 02:12:31;;;;;;;4.97;2.10;;;18.30;81.40;;;;;;2087910;28;20047;-72
2022/05/27 02:13:45;;;;;;;4.30;2.22;;;18.30;82.20;;;;;;2089271;28;20395;-72
2022/05/27 02:14:53;;;;;;;4.22;2.20;;;18.30;82.30;;;;;;2088994;28;20116;-71
2022/05/27 02:15:55;;;;;;;3.88;2.00;;;18.30;81.50;;;;;;2088419;28;20048;-71
2022/05/27 02:17:03;;;;;;;6.38;2.50;;;18.30;81.90;;;;;;2088477;28;20091;-71
2022/05/27 02:18:24;;;;;;;4.15;2.20;;;18.30;81.50;;;;;;2088579;28;20116;-72
2022/05/27 02:19:59;;;;;;;5.50;2.28;;;18.30;81.40;;;;;;2088847;28;20104;-71
2022/05/27 02:21:15;;;;;;;5.78;2.20;;;18.40;81.30;;;;;;2075455;28;20171;-72
2022/05/27 02:22:19;;;;;;;4.35;2.35;;;18.30;81.80;;;;;;2089092;28;20549;-72
2022/05/27 02:23:28;;;;;;;3.55;2.10;;;18.30;81.60;;;;;;2088999;28;20541;-71
2022/05/27 02:24:37;;;;;;;5.05;2.13;;;18.30;81.70;;;;;;2088896;28;20114;-72
2022/05/27 02:25:43;;;;;;;5.03;2.30;;;18.30;82.10;;;;;;2089143;28;20075;-71
2022/05/27 02:26:49;;;;;;;5.53;2.22;;;18.30;82.70;;;;;;2089080;28;20450;-72
2022/05/27 02:28:04;;;;;;;5.32;2.45;;;18.30;82.30;;;;;;2088467;28;20112;-72
2022/05/27 02:29:15;;;;;;;5.43;2.20;;;18.30;82.10;;;;;;2088376;28;20483;-70
2022/05/27 02:30:17;;;;;;;5.75;2.13;;;18.30;82.30;;;;;;2088914;28;20021;-71
2022/05/27 02:31:25;;;;;;;5.50;2.13;;;18.30;82.30;;;;;;2089059;28;20490;-70
2022/05/27 02:32:41;;;;;;;4.35;2.20;;;18.30;82.20;;;;;;2089139;28;20167;-72
2022/05/27 02:35:17;;;;;;;5.57;2.40;;;18.30;82.00;;;;;;2089134;28;20415;-71
2022/05/27 02:36:25;;;;;;;4.93;2.20;;;18.30;82.30;;;;;;2089276;28;20498;-71
2022/05/27 02:37:30;;;;;;;4.25;2.13;;;18.30;82.90;;;;;;2089291;28;20415;-71
2022/05/27 02:38:31;;;;;;;5.25;2.33;;;18.30;82.70;;;;;;2089292;28;20036;-71
2022/05/27 02:39:33;;;;;;;4.57;2.00;;;18.30;82.50;;;;;;2088848;28;20051;-72
2022/05/27 02:40:42;;;;;;;5.30;2.30;;;18.30;82.50;;;;;;2088175;28;20045;-71
2022/05/27 02:41:56;;;;;;;5.78;1.98;;;18.30;83.60;;;;;;2088519;28;20104;-71
2022/05/27 02:43:05;;;;;;;5.53;2.17;;;18.30;82.50;;;;;;2088990;28;20206;-71
2022/05/27 02:44:22;;;;;;;4.22;2.10;;;18.30;82.40;;;;;;2088132;28;20029;-71
2022/05/27 02:45:40;;;;;;;4.28;2.00;;;18.40;82.40;;;;;;2088505;28;20110;-71
2022/05/27 02:47:22;;;;;;;4.88;2.10;;;18.40;83.00;;;;;;2088543;28;20113;-70
2022/05/27 02:48:48;;;;;;;6.13;2.13;;;18.30;82.40;;;;;;2088917;28;20052;-71
2022/05/27 02:50:15;;;;;;;5.45;2.28;;;18.30;82.50;;;;;;2089105;28;20108;-71
2022/05/27 02:51:24;;;;;;;4.32;2.08;;;18.40;82.40;;;;;;2088892;28;20040;-72
2022/05/27 02:52:34;;;;;;;4.88;2.10;;;18.30;82.50;;;;;;2089033;28;20037;-71
2022/05/27 02:53:46;;;;;;;4.50;2.13;;;18.30;82.10;;;;;;2088972;28;20029;-70
2022/05/27 02:55:16;;;;;;;6.95;2.20;;;18.30;82.10;;;;;;2088302;28;20098;-71
2022/05/27 02:56:26;;;;;;;4.55;1.90;;;18.30;82.30;;;;;;2088819;28;20128;-71
2022/05/27 02:57:48;;;;;;;3.53;2.00;;;18.30;82.90;;;;;;2089004;28;20032;-71
2022/05/27 02:58:49;;;;;;;6.30;2.30;;;18.30;83.40;;;;;;2089189;28;20045;-72
2022/05/27 02:59:51;;;;;;;6.35;2.53;;;18.30;83.60;;;;;;2089134;28;20387;-71
2022/05/27 03:00:52;;;;;;;5.10;2.10;;;18.30;83.10;;;;;;2088946;28;20479;-71
2022/05/27 03:01:53;;;;;;;5.10;2.35;;;18.30;82.70;;;;;;2089010;28;20028;-71
2022/05/27 03:02:54;;;;;;;6.55;2.17;;;18.30;82.70;;;;;;2088889;28;20025;-71
2022/05/27 03:03:55;;;;;;;3.90;2.20;;;18.30;83.10;;;;;;2088744;28;20055;-71
2022/05/27 03:04:58;;;;;;;4.25;2.13;;;18.30;83.40;;;;;;2088181;28;20041;-71
2022/05/27 03:06:20;;;;;;;3.67;2.10;;;18.30;82.90;;;;;;2088223;28;20079;-72
2022/05/27 03:07:47;;;;;;;3.88;2.40;;;18.30;82.70;;;;;;2088136;28;20029;-70
2022/05/27 03:08:53;;;;;;;4.25;2.30;;;18.30;82.90;;;;;;2066480;28;20507;-76
2022/05/27 03:10:22;;;;;;;5.28;2.30;;;18.30;83.00;;;;;;2088543;28;20485;-72
2022/05/27 03:11:27;;;;;;;3.50;2.10;;;18.30;82.90;;;;;;2088871;28;20446;-72
2022/05/27 03:12:55;;;;;;;5.13;2.53;;;18.20;82.80;;;;;;2088252;28;20490;-71
2022/05/27 03:13:58;;;;;;;3.80;2.00;;;18.30;83.00;;;;;;2088430;28;20025;-71
2022/05/27 03:15:32;;;;;;;4.28;2.35;;;18.30;83.60;;;;;;2088125;28;20040;-72
2022/05/27 03:16:53;;;;;;;4.72;2.30;;;18.30;83.50;;;;;;2088213;28;20025;-71
2022/05/27 03:18:02;;;;;;;5.05;2.20;;;18.20;83.10;;;;;;2088685;28;20040;-71
2022/05/27 03:19:22;;;;;;;4.88;2.10;;;18.20;83.30;;;;;;2088561;28;20049;-71
2022/05/27 03:20:47;;;;;;;5.13;2.10;;;18.20;83.20;;;;;;2088760;28;20286;-72
2022/05/27 03:21:48;;;;;;;8.60;2.20;;;18.20;83.20;;;;;;2088731;28;20033;-72
2022/05/27 03:23:03;;;;;;;4.03;2.20;;;18.20;83.70;;;;;;2088649;28;20032;-72
2022/05/27 03:24:22;;;;;;;3.28;2.13;;;18.20;84.10;;;;;;2087653;28;20037;-72
2022/05/27 03:25:45;;;;;;;5.13;2.00;;;18.20;84.70;;;;;;2088648;28;20044;-72
2022/05/27 03:27:10;;;;;;;4.18;2.13;;;18.20;83.80;;;;;;2088448;28;20414;-72
2022/05/27 03:28:14;;;;;;;5.82;2.20;;;18.20;84.10;;;;;;2088026;28;20040;-73
2022/05/27 03:29:32;;;;;;;5.45;2.35;;;18.20;83.80;;;;;;2088071;28;20078;-73
2022/05/27 03:31:10;;;;;;;5.03;2.35;;;18.20;84.10;;;;;;2088583;28;20049;-72
2022/05/27 03:32:31;;;;;;;7.25;2.28;;;18.10;84.30;;;;;;2070700;28;20033;-72
2022/05/27 03:33:35;;;;;;;3.10;2.10;;;18.10;84.30;;;;;;2088196;28;20033;-72
2022/05/27 03:34:45;;;;;;;5.50;2.45;;;18.10;84.50;;;;;;2088321;28;20020;-71
2022/05/27 03:36:13;;;;;;;5.77;2.20;;;18.10;84.60;;;;;;2088708;28;20112;-72
2022/05/27 03:37:35;;;;;;;5.53;2.33;;;18.10;84.40;;;;;;2082153;28;20068;-72
2022/05/27 03:38:42;;;;;;;4.63;2.22;;;18.10;84.20;;;;;;2088485;28;20021;-71
2022/05/27 03:40:14;;;;;;;5.72;2.55;;;18.10;84.10;;;;;;2087931;28;20029;-72
2022/05/27 03:41:31;;;;;;;5.90;2.50;;;18.10;84.30;;;;;;2088225;28;20110;-73
2022/05/27 03:42:35;;;;;;;5.75;2.60;;;18.10;84.80;;;;;;2088968;28;20298;-73
2022/05/27 03:43:37;;;;;;;5.93;2.50;;;18.10;85.10;;;;;;2087876;28;20031;-72
2022/05/27 03:44:38;;;;;;;7.32;2.28;;;18.10;84.70;;;;;;2087771;28;20430;-73
2022/05/27 03:45:54;;;;;;;5.88;2.45;;;18.10;85.60;;;;;;2088737;28;20324;-73
2022/05/27 03:46:56;;;;;;;3.78;2.40;;;18.10;85.00;;;;;;2088841;28;20124;-72
2022/05/27 03:47:57;;;;;;;4.45;2.25;;;18.10;85.00;;;;;;2087803;28;20033;-72
2022/05/27 03:48:59;;;;;;;4.88;2.20;;;18.10;85.20;;;;;;2087908;28;20108;-73
2022/05/27 03:49:59;;;;;;;5.55;2.40;;;18.10;85.10;;;;;;2088491;28;20029;-72
2022/05/27 03:51:23;;;;;;;4.70;2.25;;;18.10;84.60;;;;;;2088433;28;20180;-72
2022/05/27 03:52:26;;;;;;;3.92;2.20;;;18.10;85.00;;;;;;2088449;28;20112;-72
2022/05/27 03:54:46;;;;;;;7.53;2.45;;;18.00;85.20;;;;;;2087756;28;20769;-72
2022/05/27 03:55:47;;;;;;;4.38;2.00;;;18.00;85.20;;;;;;2087763;28;20025;-72
2022/05/27 03:56:48;;;;;;;7.15;2.60;;;18.00;85.10;;;;;;2088370;28;20029;-72
2022/05/27 03:57:49;;;;;;;5.47;2.25;;;18.00;85.00;;;;;;2088477;28;20029;-72
2022/05/27 03:58:50;;;;;;;6.07;2.15;;;18.00;85.20;;;;;;2087629;28;20591;-71
2022/05/27 03:59:50;;;;;;;6.15;2.38;;;18.00;85.50;;;;;;2087639;28;20036;-71
2022/05/27 04:00:51;;;;;;;3.63;2.25;;;18.00;85.70;;;;;;2087341;28;20496;-71
2022/05/27 04:01:53;;;;;;;4.28;2.30;;;18.00;85.80;;;;;;2087827;28;20090;-71
2022/05/27 04:02:54;;;;;;;5.50;2.10;;;18.00;85.90;;;;;;2087558;28;20089;-72
2022/05/27 04:03:59;;;;;;;5.78;2.30;;;18.00;85.40;;;;;;2088254;28;20441;-72
2022/05/27 04:05:00;;;;;;;7.10;2.53;;;18.00;85.20;;;;;;2088630;28;20013;-71
2022/05/27 04:06:00;;;;;;;4.10;2.22;;;18.00;85.60;;;;;;2088626;28;20086;-72
2022/05/27 04:07:01;;;;;;;7.18;2.40;;;17.90;85.60;;;;;;2088361;28;20159;-72
2022/05/27 04:08:02;;;;;;;5.05;2.47;;;18.00;85.70;;;;;;2088387;28;20446;-72
2022/05/27 04:09:04;;;;;;;3.83;2.05;;;18.00;86.00;;;;;;2088454;28;20029;-72
2022/05/27 04:10:05;;;;;;;3.85;2.13;;;18.00;85.90;;;;;;2088165;28;20021;-71
2022/05/27 04:11:05;;;;;;;4.00;2.28;;;18.00;86.10;;;;;;2088280;28;20033;-72
2022/05/27 04:12:06;;;;;;;4.32;2.20;;;18.00;85.90;;;;;;2088579;28;20359;-72
2022/05/27 04:13:07;;;;;;;4.22;2.35;;;18.00;86.20;;;;;;2088414;28;20072;-71
2022/05/27 04:14:09;;;;;;;3.78;2.17;;;18.00;86.90;;;;;;2088295;28;20170;-72
2022/05/27 04:15:09;;;;;;;3.53;2.20;;;18.00;86.70;;;;;;2088437;28;20065;-72
2022/05/27 04:16:10;;;;;;;3.92;2.00;;;18.00;86.70;;;;;;2088253;28;20032;-72
2022/05/27 04:17:31;;;;;;;4.50;1.98;;;18.00;86.80;;;;;;2088482;28;20032;-71
2022/05/27 04:18:32;;;;;;;3.90;2.20;;;18.00;87.20;;;;;;2088289;28;20468;-71
2022/05/27 04:19:33;;;;;;;3.83;2.03;;;18.10;87.70;;;;;;2088440;28;20025;-71
2022/05/27 04:20:33;;;;;;;4.78;2.10;;;18.10;87.10;;;;;;2088053;28;20161;-71
2022/05/27 04:21:34;;;;;;;4.30;2.28;;;18.10;86.90;;;;;;2088476;28;20033;-72
2022/05/27 04:22:36;;;;;;;6.00;2.17;;;18.00;86.40;;;;;;2087451;28;20060;-72
2022/05/27 04:23:37;;;;;;;4.63;2.10;;;18.00;86.10;;;;;;2079455;28;20025;-72
2022/05/27 04:24:38;;;;;;;4.95;2.25;;;18.00;86.20;;;;;;2087380;28;20522;-72
2022/05/27 04:25:39;;;;;;;5.30;2.10;;;18.00;86.20;;;;;;2088184;28;20498;-72
2022/05/27 04:26:39;;;;;;;3.25;1.90;;;18.00;86.40;;;;;;2088132;28;20471;-72
2022/05/27 04:27:40;;;;;;;7.72;2.17;;;18.00;86.50;;;;;;2088365;28;20110;-72
2022/05/27 04:28:41;;;;;;;4.72;1.88;;;18.00;86.70;;;;;;2088087;28;20099;-71
2022/05/27 04:29:44;;;;;;;4.55;2.20;;;18.00;86.50;;;;;;2088218;28;20041;-72
2022/05/27 04:30:45;;;;;;;6.60;2.50;;;18.00;86.60;;;;;;2088167;28;20051;-72
2022/05/27 04:31:45;;;;;;;4.80;2.17;;;18.00;86.80;;;;;;2088205;28;20029;-71
2022/05/27 04:32:46;;;;;;;2.63;2.00;;;17.90;86.80;;;;;;2088242;28;20037;-71
2022/05/27 04:33:48;;;;;;;5.07;2.20;;;18.00;87.00;;;;;;2087965;28;20090;-70
2022/05/27 04:34:49;;;;;;;5.32;2.40;;;18.00;87.30;;;;;;2088199;28;20025;-72
2022/05/27 04:35:50;;;;;;;3.88;1.92;;;18.00;86.70;;;;;;2088160;28;20178;-71
2022/05/27 04:36:50;;;;;;;4.82;2.15;;;17.90;86.40;;;;;;2088100;28;20505;-71
2022/05/27 04:37:51;;;;;;;4.78;2.20;;;17.90;86.70;;;;;;2088120;28;20060;-71
2022/05/27 04:38:51;;;;;;;5.15;2.17;;;17.90;86.90;;;;;;2088163;28;20100;-71
2022/05/27 04:39:52;;;;;;;4.18;2.20;;;17.90;87.00;;;;;;2087908;28;20040;-72
2022/05/27 04:40:53;;;;;;;4.93;2.20;;;17.90;87.10;;;;;;2088033;28;20029;-72
2022/05/27 04:41:53;;;;;;;5.70;2.20;;;17.90;87.20;;;;;;2088267;28;20021;-72
2022/05/27 04:42:54;;;;;;;3.70;2.05;;;17.90;87.00;;;;;;2088307;28;20068;-72
2022/05/27 04:43:55;;;;;;;3.30;1.92;;;17.90;87.50;;;;;;2088010;28;20025;-72
2022/05/27 04:44:55;;;;;;;5.90;2.40;;;17.90;87.80;;;;;;2088142;28;20063;-71
2022/05/27 04:45:56;;;;;;;4.97;2.03;;;17.90;87.90;;;;;;2088154;28;20354;-71
2022/05/27 04:46:57;;;;;;;3.85;1.90;;;17.90;87.90;;;;;;2088149;28;20029;-72
2022/05/27 04:47:57;;;;;;;3.78;2.17;;;17.90;87.90;;;;;;2088071;28;20568;-71
2022/05/27 04:48:58;;;;;;;5.35;2.22;;;17.90;88.70;;;;;;2088008;28;20036;-71
2022/05/27 04:49:58;;;;;;;5.50;2.30;;;17.90;87.80;;;;;;2087921;28;20504;-72
2022/05/27 04:50:59;;;;;;;5.68;2.28;;;17.90;87.60;;;;;;2087953;28;20040;-71
2022/05/27 04:52:00;;;;;;;6.70;2.60;;;17.80;88.00;;;;;;2088174;28;20021;-71
2022/05/27 04:53:01;;;;;;;5.38;2.50;;;17.90;88.20;;;;;;2088052;28;20036;-72
2022/05/27 04:54:02;;;;;;;4.20;2.00;;;17.90;88.60;;;;;;2087163;28;20033;-71
2022/05/27 04:55:08;;;;;;;3.20;2.40;;;17.80;88.50;;;;;;2087378;28;20112;-71
2022/05/27 04:56:10;;;;;;;4.63;2.20;;;17.90;88.20;;;;;;2088213;28;20090;-71
2022/05/27 04:57:24;;;;;;;4.68;2.25;;;17.90;88.60;;;;;;2088157;28;20400;-72
2022/05/27 04:58:25;;;;;;;6.68;2.60;;;17.90;89.00;;;;;;2088426;28;20025;-73
2022/05/27 04:59:25;;;;;;;8.00;2.50;;;17.90;88.40;;;;;;2087840;28;20117;-73
2022/05/27 05:00:27;;;;;;;6.07;2.28;;;17.80;88.40;;;;;;2087362;28;20654;-71
2022/05/27 05:01:28;;;;;;;5.32;2.40;;;17.80;88.60;;;;;;2088014;28;20098;-71
2022/05/27 05:02:29;;;;;;;4.60;2.55;;;17.80;88.90;;;;;;2088308;28;20033;-71
2022/05/27 05:03:30;;;;;;;5.13;2.45;;;17.80;89.00;;;;;;2087857;28;20028;-71
2022/05/27 05:04:30;;;;;;;7.20;2.40;;;17.80;88.80;;;;;;2087742;28;20121;-71
2022/05/27 05:05:33;;;;;;;7.40;2.70;;;17.80;89.10;;;;;;2088186;28;20057;-71
2022/05/27 05:06:34;;;;;;;5.78;2.50;;;17.80;89.20;;;;;;2088209;28;20029;-71
2022/05/27 05:07:36;;;;;;;4.47;2.28;;;17.80;89.40;;;;;;2087425;28;20029;-71
2022/05/27 05:08:38;;;;;;;4.47;2.30;;;17.70;89.60;;;;;;2079289;28;20036;-71
2022/05/27 05:09:41;;;;;;;5.80;2.35;;;17.70;89.80;;;;;;2087345;28;20085;-71
2022/05/27 05:10:42;;;;;;;6.32;2.22;;;17.70;89.90;;;;;;2088007;28;20021;-71
2022/05/27 05:11:42;;;;;;;5.20;2.30;;;17.70;90.00;;;;;;2087512;28;20540;-71
2022/05/27 05:12:44;;;;;;;5.25;2.50;;;17.70;90.10;;;;;;2087558;28;20036;-71
2022/05/27 05:13:44;;;;;;;4.85;2.42;;;17.70;90.20;;;;;;2088083;28;20033;-72
2022/05/27 05:14:45;;;;;;;6.03;2.45;;;17.70;90.30;;;;;;2087131;28;20116;-72
2022/05/27 05:15:45;;;;;;;6.15;2.67;;;17.60;90.50;;;;;;2087439;28;20108;-72
2022/05/27 05:16:46;;;;;;;8.52;2.65;;;17.60;90.70;;;;;;2087750;28;20033;-72
2022/05/27 05:17:47;;;;;;;5.63;2.47;;;17.60;91.10;;;;;;2088238;28;20506;-72
2022/05/27 05:18:47;;;;;;;5.82;2.30;;;17.50;91.00;;;;;;2088169;28;20028;-72
2022/05/27 05:19:53;;;;;;;5.22;2.97;;;17.50;91.20;;;;;;2088406;28;20086;-73
2022/05/27 05:20:55;;;;;;;7.30;2.60;;;17.50;91.60;;;;;;2087817;28;20039;-72
2022/05/27 05:21:56;;;;;;;4.45;2.65;;;17.50;91.90;;;;;;2088055;28;20076;-72
2022/05/27 05:22:56;;;;;;;6.10;2.60;;;17.50;91.90;;;;;;2087977;28;20021;-72
2022/05/27 05:23:57;;;;;;;4.72;2.53;;;17.50;91.80;;;;;;2087690;28;20029;-72
2022/05/27 05:24:58;;;;;;;6.20;2.50;;;17.50;91.80;;;;;;2087905;28;20064;-72
2022/05/27 05:25:58;;;;;;;4.53;2.30;;;17.40;91.90;;;;;;2087176;28;20040;-72
2022/05/27 05:27:00;;;;;;;6.25;2.67;;;17.40;92.10;;;;;;2087054;28;20094;-72
2022/05/27 05:28:01;;;;;;;4.40;2.60;;;17.40;92.10;;;;;;2087189;28;20116;-72
2022/05/27 05:29:06;;;;;;;5.00;2.60;;;17.40;92.10;;;;;;2087267;28;20063;-73
2022/05/27 05:30:09;;;;;;;5.32;2.90;;;17.40;92.40;;;;;;2087787;28;20315;-73
2022/05/27 05:31:13;;;;;;;8.32;2.70;;;17.40;92.60;;;;;;2087777;28;20029;-72
2022/05/27 05:32:13;;;;;;;6.47;2.60;;;17.30;92.60;;;;;;2087946;28;20317;-73
2022/05/27 05:33:14;;;;;;;7.68;2.45;;;17.30;92.90;;;;;;2088298;28;20546;-72
2022/05/27 05:34:14;;;;;;;3.40;2.38;;;17.30;92.90;;;;;;2087865;28;20128;-73
2022/05/27 05:35:16;;;;;;;4.93;2.55;;;17.30;93.30;;;;;;2088008;28;20027;-72
2022/05/27 05:36:17;;;;;;;5.07;2.70;;;17.30;93.40;;;;;;2087726;28;20029;-73
2022/05/27 05:37:17;;;;;;;7.22;2.70;;;17.30;93.20;;;;;;2087296;28;20051;-72
2022/05/27 05:38:19;;;;;;;5.88;2.80;;;17.30;93.50;;;;;;2087202;28;20028;-71
2022/05/27 05:39:20;;;;;;;6.20;2.80;;;17.30;94.20;;;;;;2087109;28;20017;-71
2022/05/27 05:40:21;;;;;;;6.22;3.00;;;17.20;94.00;;;;;;2086848;28;20029;-72
2022/05/27 05:41:26;;;;;;;7.53;2.78;;;17.20;94.20;;;;;;2088082;28;20029;-71
2022/05/27 05:42:26;;;;;;;5.57;2.95;;;17.20;94.50;;;;;;2087860;28;20044;-72
2022/05/27 05:43:27;;;;;;;4.55;2.80;;;17.10;95.00;;;;;;2087918;28;20056;-72
2022/05/27 05:44:30;;;;;;;6.95;3.10;;;17.10;95.40;;;;;;2087535;28;20020;-71
2022/05/27 05:45:30;;;;;;;6.93;3.40;;;17.00;96.20;;;;;;2087677;28;20108;-71
2022/05/27 05:46:33;;;;;;;5.72;3.00;;;17.00;96.60;;;;;;2087816;28;20175;-71
2022/05/27 05:47:34;;;;;;;7.55;3.17;;;17.00;97.00;;;;;;2089516;28;20213;-71
2022/05/27 05:48:35;;;;;;;6.72;3.10;;;17.00;97.50;;;;;;2090431;28;20595;-71
2022/05/27 05:49:35;;;;;;;6.13;3.22;;;17.00;98.30;;;;;;2089826;28;20056;-73
2022/05/27 05:50:36;;;;;;;6.55;3.33;;;17.00;98.60;;;;;;2089481;28;20032;-72
2022/05/27 05:51:37;;;;;;;6.05;2.90;;;16.90;97.90;;;;;;2090349;28;20108;-72
2022/05/27 05:52:37;;;;;;;5.80;3.05;;;16.90;98.50;;;;;;2090451;28;20615;-72